Estación Meteorológica Peña el Pijo (Robertgarden) [ 11/20/18 01:15:09 CET ]

Fecha Hora Presion(HPa) Temp (°C) Humedad % Rocio (°C) Viento ( m/s) Direccion Lluvia 1Hora(mm) Lluvia 24H(mm) LLuvia Total(mm)
2018-Jan-08 01:01:46 994.000 -0.9 79 -4.1         31.08
2018-Jan-08 02:01:41 994.000 -1.7 80 -4.7         31.08
2018-Jan-08 03:05:06 994.500 -2.8 82 -5.5         31.08
2018-Jan-08 04:01:44 994.800 -3.1 82 -5.8         31.08
2018-Jan-08 05:01:52 995.300 -3.0 83 -5.5         31.08
2018-Jan-08 06:01:43 995.800 -3.6 83 -6.1         31.08
2018-Jan-08 07:01:37 996.400 -3.9 84 -6.2         31.08
2018-Jan-08 08:01:44 996.800 -4.4 84 -6.7         31.08
2018-Jan-08 09:01:32 997.400 -4.5 85 -6.6         31.08
2018-Jan-08 10:01:51 997.700 -0.9 86 -2.9         31.08
2018-Jan-08 11:01:46 998.200 3.8 82 1.0         31.08
2018-Jan-08 12:01:46 998.000 5.9 66 0.0         31.08
2018-Jan-08 13:01:22 997.700 7.0 59 -0.6         31.08
2018-Jan-08 14:01:37 997.400 10.1 48 -0.4         31.08
2018-Jan-08 15:01:41 997.500 8.6 47 -2.2         31.08
2018-Jan-08 16:01:58 998.100 7.1 55 -1.4         31.08
2018-Jan-08 17:01:46 998.700 5.4 61 -1.5         31.08
2018-Jan-08 18:01:48 999.400 4.8 64 -1.5         31.08
2018-Jan-08 19:01:57 1000.200 4.3 67 -1.3         31.08
2018-Jan-08 20:01:38 1001.200 2.8 69 -2.3         31.08
2018-Jan-08 21:01:57 1001.900 0.9 73 -3.4         31.08
2018-Jan-08 22:01:50 1002.200 0.4 76 -3.4         31.08
2018-Jan-08 23:01:47 1002.800 -0.7 78 -4.1         31.08

Temperatura Máxima:10°    Temperatura Mínima:-4°
Presión Máxima:1002.800 Hpa    Presión Mínima:994.000 Hpa


Volver